Time;durP1;ratioP1;P1;durP2;ratioP2;P2;SDS_P1;SDS_P2;PMS_P1;PMS_P2;Temp;Humidity;BMP_temperature;BMP_pressure;BME280_temperature;BME280_humidity;BME280_pressure;Samples;Min_cycle;Max_cycle;Signal;HPM_P1;HPM_P2
2022/11/09 00:01:28;;;;;;;;;1.00;1.00;;;;;-145.03;100.00;62373.16;5035938;28;45474;-74
2022/11/09 00:03:57;;;;;;;;;1.50;0.50;;;;;-145.03;100.00;62373.16;5036255;28;45465;-74
2022/11/09 00:06:24;;;;;;;;;2.75;1.50;;;;;-145.03;100.00;62373.16;5035884;28;45665;-74
2022/11/09 00:08:50;;;;;;;;;4.25;2.00;;;;;-145.03;100.00;62373.16;5036490;28;45477;-74
2022/11/09 00:11:15;;;;;;;;;2.00;0.50;;;;;-145.03;100.00;62373.16;5035934;28;45551;-74
2022/11/09 00:13:43;;;;;;;;;1.00;1.00;;;;;-145.03;100.00;62373.16;5036274;28;46022;-80
2022/11/09 00:16:11;;;;;;;;;1.00;1.00;;;;;-145.03;100.00;62373.16;5036051;28;45469;-80
2022/11/09 00:18:37;;;;;;;;;1.00;1.00;;;;;-145.03;100.00;62373.16;5036326;28;45468;-79
2022/11/09 00:21:07;;;;;;;;;1.00;1.00;;;;;-145.03;100.00;62373.16;5035445;28;45370;-80
2022/11/09 00:23:33;;;;;;;;;2.25;0.50;;;;;-145.03;100.00;62373.16;5035809;28;45535;-80
2022/11/09 00:26:03;;;;;;;;;0.75;0.75;;;;;-145.03;100.00;62373.16;5035494;28;45547;-80
2022/11/09 00:28:28;;;;;;;;;1.00;1.00;;;;;-145.03;100.00;62373.16;5036284;28;46482;-80
2022/11/09 00:31:05;;;;;;;;;2.25;1.00;;;;;-145.03;100.00;62373.16;5035784;28;45727;-79
2022/11/09 00:33:31;;;;;;;;;3.00;2.00;;;;;-145.03;100.00;62373.16;5022237;28;45493;-80
2022/11/09 00:35:58;;;;;;;;;2.75;1.00;;;;;-145.03;100.00;62373.16;5035608;28;45503;-79
2022/11/09 00:38:23;;;;;;;;;1.00;1.00;;;;;-145.03;100.00;62373.16;5035781;28;45406;-79
2022/11/09 00:40:49;;;;;;;;;0.75;0.75;;;;;-145.03;100.00;62373.16;5035505;28;46184;-80
2022/11/09 00:43:15;;;;;;;;;1.50;1.00;;;;;-145.03;100.00;62373.16;5035691;28;45492;-80
2022/11/09 00:45:41;;;;;;;;;2.00;2.00;;;;;-145.03;100.00;62373.16;5035692;28;45512;-79
2022/11/09 00:48:08;;;;;;;;;1.00;1.00;;;;;-145.03;100.00;62373.16;5045345;28;45396;-79
2022/11/09 00:50:33;;;;;;;;;2.33;2.00;;;;;-145.03;100.00;62373.16;5056126;28;45422;-80
2022/11/09 00:52:59;;;;;;;;;1.00;1.00;;;;;-145.03;100.00;62373.16;5055565;28;45749;-80
2022/11/09 00:55:25;;;;;;;;;3.00;1.33;;;;;-145.03;100.00;62373.16;5037674;28;45445;-79
2022/11/09 00:57:52;;;;;;;;;4.00;1.00;;;;;-145.03;100.00;62373.16;5036420;28;45407;-79
2022/11/09 01:00:22;;;;;;;;;1.00;1.00;;;;;-145.03;100.00;62373.16;5055423;28;45385;-79
2022/11/09 01:02:51;;;;;;;;;1.33;1.33;;;;;-145.03;100.00;62373.16;5055536;28;45452;-79
2022/11/09 01:05:18;;;;;;;;;1.00;1.00;;;;;-145.03;100.00;62373.16;5055761;28;45432;-80
2022/11/09 01:07:43;;;;;;;;;2.00;1.00;;;;;-145.03;100.00;62373.16;5037516;28;45549;-79
2022/11/09 01:10:09;;;;;;;;;1.00;1.00;;;;;-145.03;100.00;62373.16;5058253;28;46091;-79
2022/11/09 01:12:35;;;;;;;;;1.25;1.00;;;;;-145.03;100.00;62373.16;5059104;28;45572;-74
2022/11/09 01:15:01;;;;;;;;;0.00;0.00;;;;;-145.03;100.00;62373.16;5037742;28;45445;-73
2022/11/09 01:17:26;;;;;;;;;1.75;1.75;;;;;-145.03;100.00;62373.16;5055689;28;45480;-74
2022/11/09 01:19:52;;;;;;;;;5.00;1.00;;;;;-145.03;100.00;62373.16;5059066;28;45444;-73
2022/11/09 01:22:18;;;;;;;;;0.00;0.00;;;;;-145.03;100.00;62373.16;5040570;28;45397;-74
2022/11/09 01:24:44;;;;;;;;;1.00;1.00;;;;;-145.03;100.00;62373.16;5040831;28;45410;-74
2022/11/09 01:27:10;;;;;;;;;1.25;1.00;;;;;-145.03;100.00;62373.16;5040643;28;45886;-74
2022/11/09 01:29:36;;;;;;;;;2.00;0.00;;;;;-145.03;100.00;62373.16;5058798;28;45439;-74
2022/11/09 01:32:02;;;;;;;;;0.33;0.33;;;;;-145.03;100.00;62373.16;5058766;28;45499;-74
2022/11/09 01:34:28;;;;;;;;;1.00;1.00;;;;;-145.03;100.00;62373.16;5037415;28;45382;-74
2022/11/09 01:37:20;;;;;;;;;0.00;0.00;;;;;-145.03;100.00;62373.16;5055251;28;45408;-74
2022/11/09 01:39:45;;;;;;;;;0.00;0.00;;;;;-145.03;100.00;62373.16;5058343;28;45384;-73
2022/11/09 01:42:11;;;;;;;;;0.00;0.00;;;;;-145.03;100.00;62373.16;5039950;28;45389;-74
2022/11/09 01:44:39;;;;;;;;;1.00;0.25;;;;;-145.03;100.00;62373.16;5057987;28;45468;-73
2022/11/09 01:47:21;;;;;;;;;2.33;1.00;;;;;-145.03;100.00;62373.16;5038614;28;45476;-74
2022/11/09 01:49:54;;;;;;;;;0.25;0.25;;;;;-145.03;100.00;62373.16;5060771;28;45481;-74
2022/11/09 01:52:31;;;;;;;;;0.00;0.00;;;;;-145.03;100.00;62373.16;5056233;28;45540;-74
2022/11/09 01:55:02;;;;;;;;;1.25;1.00;;;;;-145.03;100.00;62373.16;5049732;28;45744;-73
2022/11/09 01:57:35;;;;;;;;;1.00;1.00;;;;;-145.03;100.00;62373.16;5057723;28;45431;-74
2022/11/09 02:00:11;;;;;;;;;2.00;2.00;;;;;-145.03;100.00;62373.16;5023449;28;45587;-73
2022/11/09 02:02:39;;;;;;;;;0.75;0.75;;;;;-145.03;100.00;62373.16;5040606;28;45540;-73
2022/11/09 02:05:14;;;;;;;;;0.00;0.00;;;;;-145.03;100.00;62373.16;5055086;28;45758;-74
2022/11/09 02:07:41;;;;;;;;;0.00;0.00;;;;;-145.03;100.00;62373.16;5049264;28;45612;-74
2022/11/09 02:10:19;;;;;;;;;0.75;0.75;;;;;-145.03;100.00;62373.16;5057782;28;47491;-73
2022/11/09 02:12:46;;;;;;;;;0.00;0.00;;;;;-145.03;100.00;62373.16;5055599;28;45567;-73
2022/11/09 02:15:12;;;;;;;;;1.00;0.50;;;;;-145.03;100.00;62373.16;5029798;28;45551;-73
2022/11/09 02:17:39;;;;;;;;;1.00;1.00;;;;;-145.03;100.00;62373.16;5054379;28;45568;-73
2022/11/09 02:20:08;;;;;;;;;0.00;0.00;;;;;-145.03;100.00;62373.16;5053142;28;47542;-74
2022/11/09 02:22:34;;;;;;;;;0.00;0.00;;;;;-145.03;100.00;62373.16;5038393;28;45416;-73
2022/11/09 02:25:01;;;;;;;;;0.00;0.00;;;;;-145.03;100.00;62373.16;5039986;28;45471;-73
2022/11/09 02:27:27;;;;;;;;;0.25;0.00;;;;;-145.03;100.00;62373.16;5058167;28;45589;-73
2022/11/09 02:29:55;;;;;;;;;0.75;0.00;;;;;-145.03;100.00;62373.16;5058076;28;45703;-73
2022/11/09 02:32:25;;;;;;;;;0.00;0.00;;;;;-145.03;100.00;62373.16;5057944;28;45477;-73
2022/11/09 02:34:50;;;;;;;;;0.00;0.00;;;;;-145.03;100.00;62373.16;5057710;28;45467;-73
2022/11/09 02:37:29;;;;;;;;;1.00;0.00;;;;;-145.03;100.00;62373.16;5057773;28;45455;-73
2022/11/09 02:39:58;;;;;;;;;0.00;0.00;;;;;-145.03;100.00;62373.16;5058182;28;46409;-73
2022/11/09 02:42:23;;;;;;;;;0.00;0.00;;;;;-145.03;100.00;62373.16;5057476;28;45431;-73
2022/11/09 02:44:57;;;;;;;;;0.00;0.00;;;;;-145.03;100.00;62373.16;5058013;28;45422;-73
2022/11/09 02:47:23;;;;;;;;;0.00;0.00;;;;;-145.03;100.00;62373.16;5037862;28;45414;-73
2022/11/09 02:49:49;;;;;;;;;0.00;0.00;;;;;-145.03;100.00;62373.16;5038312;28;45570;-74
2022/11/09 02:52:15;;;;;;;;;0.33;0.33;;;;;-145.03;100.00;62373.16;5051264;28;45579;-73
2022/11/09 02:54:40;;;;;;;;;0.50;0.00;;;;;-145.03;100.00;62373.16;5057673;28;45530;-73
2022/11/09 02:57:06;;;;;;;;;2.25;0.00;;;;;-145.03;100.00;62373.16;5036355;28;45490;-73
2022/11/09 02:59:31;;;;;;;;;0.00;0.00;;;;;-145.03;100.00;62373.16;5056420;28;46305;-73
2022/11/09 03:01:57;;;;;;;;;0.00;0.00;;;;;-145.03;100.00;62373.16;5034674;28;45807;-73
2022/11/09 03:04:22;;;;;;;;;0.00;0.00;;;;;-145.03;100.00;62373.16;5056045;28;45452;-73
2022/11/09 03:06:48;;;;;;;;;1.50;0.00;;;;;-145.03;100.00;62373.16;5056888;28;45381;-73
2022/11/09 03:09:13;;;;;;;;;1.00;0.00;;;;;-145.03;100.00;62373.16;5035802;28;46853;-73
2022/11/09 03:11:40;;;;;;;;;0.00;0.00;;;;;-145.03;100.00;62373.16;5056288;28;45811;-75
2022/11/09 03:14:08;;;;;;;;;0.67;0.00;;;;;-145.03;100.00;62373.16;5049640;28;45354;-80
2022/11/09 03:16:35;;;;;;;;;1.00;0.00;;;;;-145.03;100.00;62373.16;5056024;28;45460;-79
2022/11/09 03:19:01;;;;;;;;;0.75;0.00;;;;;-145.03;100.00;62373.16;5056047;28;46999;-80
2022/11/09 03:21:28;;;;;;;;;2.00;0.00;;;;;-145.03;100.00;62373.16;5056260;28;46097;-80
2022/11/09 03:23:56;;;;;;;;;2.50;0.00;;;;;-145.03;100.00;62373.16;5052260;28;46853;-80
2022/11/09 03:26:22;;;;;;;;;0.00;0.00;;;;;-145.03;100.00;62373.16;5037836;28;45725;-81
2022/11/09 03:28:47;;;;;;;;;0.00;0.00;;;;;-145.03;100.00;62373.16;5056435;28;46165;-81
2022/11/09 03:31:13;;;;;;;;;0.25;0.25;;;;;-145.03;100.00;62373.16;5056279;28;45595;-80
2022/11/09 03:33:39;;;;;;;;;2.00;0.00;;;;;-145.03;100.00;62373.16;5056742;28;45428;-80
2022/11/09 03:36:05;;;;;;;;;1.00;0.00;;;;;-145.03;100.00;62373.16;5057125;28;45496;-80
2022/11/09 03:38:31;;;;;;;;;0.00;0.00;;;;;-145.03;100.00;62373.16;5056753;28;47368;-81
2022/11/09 03:41:00;;;;;;;;;1.00;0.00;;;;;-145.03;100.00;62373.16;5038810;28;45440;-80
2022/11/09 03:43:29;;;;;;;;;0.00;0.00;;;;;-145.03;100.00;62373.16;5057161;28;45350;-81
2022/11/09 03:45:54;;;;;;;;;0.00;0.00;;;;;-145.03;100.00;62373.16;5056878;28;45738;-81
2022/11/09 03:48:21;;;;;;;;;0.00;0.00;;;;;-145.03;100.00;62373.16;5055962;28;45527;-80
2022/11/09 03:50:46;;;;;;;;;0.00;0.00;;;;;-145.03;100.00;62373.16;5035938;28;45433;-81
2022/11/09 03:53:12;;;;;;;;;0.00;0.00;;;;;-145.03;100.00;62373.16;5057235;28;45364;-81
2022/11/09 03:55:39;;;;;;;;;1.00;0.00;;;;;-145.03;100.00;62373.16;5057012;28;45531;-81
2022/11/09 03:58:06;;;;;;;;;0.00;0.00;;;;;-145.03;100.00;62373.16;5056070;28;46551;-81
2022/11/09 04:00:32;;;;;;;;;0.00;0.00;;;;;-145.03;100.00;62373.16;5036727;28;45553;-81
2022/11/09 04:02:58;;;;;;;;;0.00;0.00;;;;;-145.03;100.00;62373.16;5055156;28;45436;-81
2022/11/09 04:05:24;;;;;;;;;0.00;0.00;;;;;-145.03;100.00;62373.16;5037481;28;46812;-81
2022/11/09 04:07:52;;;;;;;;;0.00;0.00;;;;;-145.03;100.00;62373.16;5055014;28;46501;-81
2022/11/09 04:10:18;;;;;;;;;0.00;0.00;;;;;-145.03;100.00;62373.16;5055604;28;45452;-81
2022/11/09 04:12:45;;;;;;;;;0.00;0.00;;;;;-145.03;100.00;62373.16;5054847;28;45449;-74
2022/11/09 04:15:11;;;;;;;;;1.00;0.00;;;;;-145.03;100.00;62373.16;5055921;28;45567;-74
2022/11/09 04:17:36;;;;;;;;;0.00;0.00;;;;;-145.03;100.00;62373.16;5055211;28;46358;-74
2022/11/09 04:20:06;;;;;;;;;0.00;0.00;;;;;-145.03;100.00;62373.16;5039440;28;45673;-74
2022/11/09 04:22:32;;;;;;;;;0.00;0.00;;;;;-145.03;100.00;62373.16;5055632;28;45311;-74
2022/11/09 04:24:58;;;;;;;;;0.00;0.00;;;;;-145.03;100.00;62373.16;5055025;28;45488;-74
2022/11/09 04:27:24;;;;;;;;;0.00;0.00;;;;;-145.03;100.00;62373.16;5035118;28;47415;-74
2022/11/09 04:29:49;;;;;;;;;0.00;0.00;;;;;-145.03;100.00;62373.16;5054796;28;45395;-74
2022/11/09 04:32:15;;;;;;;;;1.00;0.00;;;;;-145.03;100.00;62373.16;5055176;28;45360;-74
2022/11/09 04:34:40;;;;;;;;;0.00;0.00;;;;;-145.03;100.00;62373.16;5055756;28;45223;-75
2022/11/09 04:37:06;;;;;;;;;1.00;0.00;;;;;-145.03;100.00;62373.16;5055665;28;46447;-74
2022/11/09 04:39:32;;;;;;;;;1.00;0.00;;;;;-145.03;100.00;62373.16;5036997;28;47083;-74
2022/11/09 04:41:57;;;;;;;;;0.00;0.00;;;;;-145.03;100.00;62373.16;5054841;28;45697;-74
2022/11/09 04:44:23;;;;;;;;;0.00;0.00;;;;;-145.03;100.00;62373.16;5039666;28;45531;-74
2022/11/09 04:46:48;;;;;;;;;1.25;0.00;;;;;-145.03;100.00;62373.16;5057713;28;46434;-74
2022/11/09 04:49:14;;;;;;;;;0.00;0.00;;;;;-145.03;100.00;62373.16;5058738;28;45483;-74
2022/11/09 04:51:39;;;;;;;;;0.00;0.00;;;;;-145.03;100.00;62373.16;5059425;28;45326;-74
2022/11/09 04:54:05;;;;;;;;;0.50;0.25;;;;;-145.03;100.00;62373.16;5023153;28;45529;-75
2022/11/09 04:56:32;;;;;;;;;0.00;0.00;;;;;-145.03;100.00;62373.16;5056238;28;45615;-74
2022/11/09 04:58:57;;;;;;;;;0.00;0.00;;;;;-145.03;100.00;62373.16;5058032;28;45437;-74
2022/11/09 05:01:23;;;;;;;;;0.00;0.00;;;;;-145.03;100.00;62373.16;5057877;28;45508;-74
2022/11/09 05:03:48;;;;;;;;;0.00;0.00;;;;;-145.03;100.00;62373.16;5057209;28;45457;-74
2022/11/09 05:06:32;;;;;;;;;0.67;0.00;;;;;-145.03;100.00;62373.16;5057965;28;45404;-75
2022/11/09 05:09:00;;;;;;;;;1.00;0.00;;;;;-145.03;100.00;62373.16;5040218;28;45924;-74
2022/11/09 05:11:26;;;;;;;;;1.67;0.00;;;;;-145.03;100.00;62373.16;5057425;28;45696;-74
2022/11/09 05:13:52;;;;;;;;;0.00;0.00;;;;;-145.03;100.00;62373.16;5058694;28;45537;-74
2022/11/09 05:16:18;;;;;;;;;0.00;0.00;;;;;-145.03;100.00;62373.16;5057921;28;45638;-75
2022/11/09 05:18:44;;;;;;;;;0.00;0.00;;;;;-145.03;100.00;62373.16;5055513;28;45440;-74
2022/11/09 05:21:09;;;;;;;;;0.00;0.00;;;;;-145.03;100.00;62373.16;5055005;28;45517;-74
2022/11/09 05:26:18;;;;;;;;;0.00;0.00;;;;;-145.03;100.00;62373.16;5058209;28;45891;-74
2022/11/09 05:28:44;;;;;;;;;0.00;0.00;;;;;-145.03;100.00;62373.16;5058020;28;47017;-74
2022/11/09 05:31:10;;;;;;;;;2.00;0.00;;;;;-145.03;100.00;62373.16;5057538;28;45857;-75
2022/11/09 05:33:35;;;;;;;;;0.00;0.00;;;;;-145.03;100.00;62373.16;5040448;28;45487;-75
2022/11/09 05:36:01;;;;;;;;;0.00;0.00;;;;;-145.03;100.00;62373.16;5058464;28;46320;-78
2022/11/09 05:38:26;;;;;;;;;0.00;0.00;;;;;-145.03;100.00;62373.16;5057887;28;45440;-78
2022/11/09 05:40:53;;;;;;;;;0.00;0.00;;;;;-145.03;100.00;62373.16;5058468;28;45773;-78
2022/11/09 05:43:19;;;;;;;;;3.00;0.00;;;;;-145.03;100.00;62373.16;5058345;28;45414;-78
2022/11/09 05:45:44;;;;;;;;;0.00;0.00;;;;;-145.03;100.00;62373.16;5057590;28;45477;-78
2022/11/09 05:48:11;;;;;;;;;1.00;0.00;;;;;-145.03;100.00;62373.16;5057060;28;45337;-77
2022/11/09 05:50:38;;;;;;;;;0.00;0.00;;;;;-145.03;100.00;62373.16;5059170;28;45417;-76
2022/11/09 05:53:04;;;;;;;;;0.00;0.00;;;;;-145.03;100.00;62373.16;5059607;28;45592;-77
2022/11/09 05:55:29;;;;;;;;;0.00;0.00;;;;;-145.03;100.00;62373.16;5055871;28;46244;-77
2022/11/09 05:57:55;;;;;;;;;2.00;0.00;;;;;-145.03;100.00;62373.16;5057493;28;45577;-77
2022/11/09 06:00:37;;;;;;;;;2.00;0.00;;;;;-145.03;100.00;62373.16;5039469;28;45997;-76
2022/11/09 06:03:07;;;;;;;;;1.00;0.00;;;;;-145.03;100.00;62373.16;5043819;28;45445;-77
2022/11/09 06:05:33;;;;;;;;;0.00;0.00;;;;;-145.03;100.00;62373.16;5042376;28;46135;-78
2022/11/09 06:08:10;;;;;;;;;0.00;0.00;;;;;-145.03;100.00;62373.16;5030361;28;45566;-77
2022/11/09 06:10:35;;;;;;;;;1.00;0.00;;;;;-145.03;100.00;62373.16;5038058;28;46168;-76
2022/11/09 06:13:01;;;;;;;;;0.00;0.00;;;;;-145.03;100.00;62373.16;5063829;28;45458;-73
2022/11/09 06:15:26;;;;;;;;;0.00;0.00;;;;;-145.03;100.00;62373.16;5055196;28;45940;-70
2022/11/09 06:17:56;;;;;;;;;0.00;0.00;;;;;-145.03;100.00;62373.16;5056078;28;45447;-70
2022/11/09 06:20:23;;;;;;;;;2.00;0.00;;;;;-145.03;100.00;62373.16;5047390;28;45535;-70
2022/11/09 06:22:59;;;;;;;;;1.00;0.00;;;;;-145.03;100.00;62373.16;5044152;28;45500;-70
2022/11/09 06:25:25;;;;;;;;;5.33;0.33;;;;;-145.03;100.00;62373.16;5037375;28;46186;-74
2022/11/09 06:27:54;;;;;;;;;2.33;0.00;;;;;-145.03;100.00;62373.16;5046617;28;45431;-82
2022/11/09 06:30:20;;;;;;;;;1.00;0.00;;;;;-145.03;100.00;62373.16;5057788;28;45526;-75
2022/11/09 06:32:45;;;;;;;;;0.00;0.00;;;;;-145.03;100.00;62373.16;5053021;28;45520;-76
2022/11/09 06:35:10;;;;;;;;;0.00;0.00;;;;;-145.03;100.00;62373.16;5028587;28;45639;-76
2022/11/09 06:37:36;;;;;;;;;0.00;0.00;;;;;-145.03;100.00;62373.16;5050133;28;45658;-74
2022/11/09 06:40:02;;;;;;;;;0.00;0.00;;;;;-145.03;100.00;62373.16;5033905;28;45595;-75
2022/11/09 06:42:28;;;;;;;;;0.00;0.00;;;;;-145.03;100.00;62373.16;5052319;28;45592;-75
2022/11/09 06:44:53;;;;;;;;;0.00;0.00;;;;;-145.03;100.00;62373.16;5052131;28;45696;-75
2022/11/09 06:47:19;;;;;;;;;0.67;0.67;;;;;-145.03;100.00;62373.16;5057533;28;45460;-75
2022/11/09 06:49:44;;;;;;;;;0.00;0.00;;;;;-145.03;100.00;62373.16;5035949;28;45805;-75
2022/11/09 06:52:09;;;;;;;;;1.00;1.00;;;;;-145.03;100.00;62373.16;5056377;28;45503;-73
2022/11/09 06:54:35;;;;;;;;;9.00;1.00;;;;;-145.03;100.00;62373.16;5052088;28;45349;-73
2022/11/09 06:57:00;;;;;;;;;3.33;1.33;;;;;-145.03;100.00;62373.16;5054381;28;45580;-74
2022/11/09 06:59:26;;;;;;;;;1.67;1.67;;;;;-145.03;100.00;62373.16;5055670;28;45600;-83
2022/11/09 07:01:51;;;;;;;;;2.00;2.00;;;;;-145.03;100.00;62373.16;5034696;28;45631;-80
2022/11/09 07:04:19;;;;;;;;;2.00;2.00;;;;;-145.03;100.00;62373.16;5055592;28;45410;-75
2022/11/09 07:06:44;;;;;;;;;2.00;2.00;;;;;-145.03;100.00;62373.16;5054753;28;45510;-77
2022/11/09 07:09:11;;;;;;;;;1.67;1.00;;;;;-145.03;100.00;62373.16;5055352;28;45391;-79
2022/11/09 07:11:36;;;;;;;;;2.00;1.67;;;;;-145.03;100.00;62373.16;5056619;28;45543;-80
2022/11/09 07:14:02;;;;;;;;;2.00;0.00;;;;;-145.03;100.00;62373.16;5054676;28;46027;-81
2022/11/09 07:16:29;;;;;;;;;0.33;0.33;;;;;-145.03;100.00;62373.16;5034487;28;45749;-78
2022/11/09 07:18:54;;;;;;;;;2.00;1.00;;;;;-145.03;100.00;62373.16;5038099;28;45435;-78
2022/11/09 07:21:19;;;;;;;;;2.67;2.00;;;;;-145.03;100.00;62373.16;5058962;28;45436;-79
2022/11/09 07:23:47;;;;;;;;;1.00;1.00;;;;;-145.03;100.00;62373.16;5057658;28;45427;-79
2022/11/09 07:26:12;;;;;;;;;2.00;2.00;;;;;-145.03;100.00;62373.16;5055439;28;45468;-79
2022/11/09 07:28:38;;;;;;;;;0.67;0.67;;;;;-145.03;100.00;62373.16;5055458;28;45429;-79
2022/11/09 07:31:04;;;;;;;;;2.33;2.00;;;;;-145.03;100.00;62373.16;5054901;28;45595;-79
2022/11/09 07:33:31;;;;;;;;;1.00;1.00;;;;;-145.03;100.00;62373.16;5056215;28;45411;-78
2022/11/09 07:35:58;;;;;;;;;1.00;1.00;;;;;-145.03;100.00;62373.16;5038071;28;45373;-78
2022/11/09 07:38:23;;;;;;;;;3.33;1.00;;;;;-145.03;100.00;62373.16;5055873;28;45470;-77
2022/11/09 07:40:49;;;;;;;;;1.33;1.33;;;;;-145.03;100.00;62373.16;5059401;28;45787;-76
2022/11/09 07:43:14;;;;;;;;;0.33;0.00;;;;;-145.03;100.00;62373.16;5052036;28;45582;-76
2022/11/09 07:45:40;;;;;;;;;1.00;1.00;;;;;-145.03;100.00;62373.16;5056572;28;45616;-79
2022/11/09 07:48:08;;;;;;;;;2.00;2.00;;;;;-145.03;100.00;62373.16;5054760;28;45247;-78
2022/11/09 07:50:36;;;;;;;;;3.67;1.00;;;;;-145.03;100.00;62373.16;5055930;28;45404;-77
2022/11/09 07:53:02;;;;;;;;;2.67;1.67;;;;;-145.03;100.00;62373.16;5042709;28;45456;-77
2022/11/09 07:55:29;;;;;;;;;3.33;1.00;;;;;-145.03;100.00;62373.16;5056042;28;45354;-76
2022/11/09 07:57:59;;;;;;;;;3.00;1.00;;;;;-145.03;100.00;62373.16;5034985;28;45600;-77
2022/11/09 08:00:26;;;;;;;;;1.00;1.00;;;;;-145.03;100.00;62373.16;5049945;28;45514;-77
2022/11/09 08:02:51;;;;;;;;;0.67;0.67;;;;;-145.03;100.00;62373.16;5034779;28;48426;-77
2022/11/09 08:05:17;;;;;;;;;1.67;0.00;;;;;-145.03;100.00;62373.16;5049977;28;45332;-77
2022/11/09 08:07:42;;;;;;;;;1.33;1.00;;;;;-145.03;100.00;62373.16;5056776;28;45489;-77
2022/11/09 08:10:08;;;;;;;;;2.67;1.67;;;;;-145.03;100.00;62373.16;5056023;28;45448;-78
2022/11/09 08:12:33;;;;;;;;;2.00;0.67;;;;;-145.03;100.00;62373.16;5056343;28;45447;-76
2022/11/09 08:14:58;;;;;;;;;2.33;1.00;;;;;-145.03;100.00;62373.16;5056316;28;45511;-76
2022/11/09 08:17:24;;;;;;;;;1.33;0.67;;;;;-145.03;100.00;62373.16;5056292;28;45417;-76
2022/11/09 08:19:49;;;;;;;;;1.00;1.00;;;;;-145.03;100.00;62373.16;5056777;28;45716;-76
2022/11/09 08:22:14;;;;;;;;;1.67;0.00;;;;;-145.03;100.00;62373.16;5038119;28;46126;-76
2022/11/09 08:24:40;;;;;;;;;0.00;0.00;;;;;-145.03;100.00;62373.16;5037994;28;45695;-76
2022/11/09 08:27:05;;;;;;;;;2.00;1.00;;;;;-145.03;100.00;62373.16;5056354;28;45369;-76
2022/11/09 08:29:31;;;;;;;;;1.00;1.00;;;;;-145.03;100.00;62373.16;5038135;28;45567;-76
2022/11/09 08:31:56;;;;;;;;;2.00;2.00;;;;;-145.03;100.00;62373.16;5037900;28;46155;-75
2022/11/09 08:34:30;;;;;;;;;2.33;1.33;;;;;-145.03;100.00;62373.16;5055903;28;45394;-76
2022/11/09 08:36:58;;;;;;;;;1.33;1.33;;;;;-145.03;100.00;62373.16;5055875;28;45343;-76
2022/11/09 08:39:24;;;;;;;;;2.00;1.00;;;;;-145.03;100.00;62373.16;5037989;28;45468;-76
2022/11/09 08:41:49;;;;;;;;;1.00;1.00;;;;;-145.03;100.00;62373.16;5038253;28;45934;-76
2022/11/09 08:44:15;;;;;;;;;1.00;0.33;;;;;-145.03;100.00;62373.16;5037745;28;45458;-75
2022/11/09 08:46:40;;;;;;;;;1.00;1.00;;;;;-145.03;100.00;62373.16;5056517;28;45454;-76
2022/11/09 08:49:05;;;;;;;;;2.00;0.33;;;;;-145.03;100.00;62373.16;5047953;28;45480;-76
2022/11/09 08:51:31;;;;;;;;;1.67;1.00;;;;;-145.03;100.00;62373.16;5055501;28;46290;-76
2022/11/09 08:54:05;;;;;;;;;3.00;1.00;;;;;-145.03;100.00;62373.16;5055933;28;45539;-76
2022/11/09 08:56:56;;;;;;;;;1.00;1.00;;;;;-145.03;100.00;62373.16;5043445;28;45677;-75
2022/11/09 08:59:24;;;;;;;;;4.00;1.00;;;;;-145.03;100.00;62373.16;5034504;28;45326;-75
2022/11/09 09:01:49;;;;;;;;;1.00;1.00;;;;;-145.03;100.00;62373.16;5028836;28;46306;-76
2022/11/09 09:04:14;;;;;;;;;1.00;1.00;;;;;-145.03;100.00;62373.16;5055240;28;48554;-76
2022/11/09 09:06:40;;;;;;;;;1.00;1.00;;;;;-145.03;100.00;62373.16;5044908;28;45424;-75
2022/11/09 09:09:05;;;;;;;;;0.75;0.75;;;;;-145.03;100.00;62373.16;5053536;28;45547;-76
2022/11/09 09:11:30;;;;;;;;;2.00;2.00;;;;;-145.03;100.00;62373.16;5037452;28;46901;-75
2022/11/09 09:13:56;;;;;;;;;4.00;0.00;;;;;-145.03;100.00;62373.16;5055786;28;45479;-78
2022/11/09 09:16:21;;;;;;;;;0.75;0.75;;;;;-145.03;100.00;62373.16;5055720;28;45446;-78
2022/11/09 09:18:47;;;;;;;;;1.25;1.00;;;;;-145.03;100.00;62373.16;5055984;28;45289;-78
2022/11/09 09:21:13;;;;;;;;;1.00;0.00;;;;;-145.03;100.00;62373.16;5055810;28;46252;-78
2022/11/09 09:23:38;;;;;;;;;1.00;1.00;;;;;-145.03;100.00;62373.16;5055176;28;45425;-78
2022/11/09 09:26:04;;;;;;;;;0.25;0.25;;;;;-145.03;100.00;62373.16;5055554;28;45441;-78
2022/11/09 09:28:30;;;;;;;;;2.25;1.25;;;;;-145.03;100.00;62373.16;5055637;28;45482;-78
2022/11/09 09:30:58;;;;;;;;;3.50;1.00;;;;;-145.03;100.00;62373.16;5036485;28;46441;-78
2022/11/09 09:33:24;;;;;;;;;0.00;0.00;;;;;-145.03;100.00;62373.16;5055042;28;45572;-78
2022/11/09 09:35:50;;;;;;;;;1.50;1.50;;;;;-145.03;100.00;62373.16;5059088;28;45450;-78
2022/11/09 09:38:15;;;;;;;;;4.00;1.00;;;;;-145.03;100.00;62373.16;5040564;28;45482;-79
2022/11/09 09:40:55;;;;;;;;;1.00;1.00;;;;;-145.03;100.00;62373.16;5058902;28;45483;-78
2022/11/09 09:43:41;;;;;;;;;2.00;1.00;;;;;-145.03;100.00;62373.16;5057280;28;45317;-78
2022/11/09 09:46:35;;;;;;;;;2.00;0.50;;;;;-145.03;100.00;62373.16;5058449;28;45491;-78
2022/11/09 09:49:05;;;;;;;;;2.00;0.75;;;;;-145.03;100.00;62373.16;5037417;28;45559;-78
2022/11/09 09:51:39;;;;;;;;;0.00;0.00;;;;;-145.03;100.00;62373.16;5045330;28;46010;-78
2022/11/09 09:54:18;;;;;;;;;1.00;0.25;;;;;-145.03;100.00;62373.16;5058358;28;45549;-78
2022/11/09 09:56:45;;;;;;;;;1.00;1.00;;;;;-145.03;100.00;62373.16;5037425;28;45393;-78
2022/11/09 09:59:20;;;;;;;;;1.00;0.00;;;;;-145.03;100.00;62373.16;5055983;28;45427;-78
2022/11/09 10:01:47;;;;;;;;;2.00;1.00;;;;;-145.03;100.00;62373.16;5037113;28;45389;-78
2022/11/09 10:04:21;;;;;;;;;0.00;0.00;;;;;-145.03;100.00;62373.16;5038591;28;45556;-79
2022/11/09 10:07:03;;;;;;;;;0.75;0.00;;;;;-145.03;100.00;62373.16;5058542;28;45412;-78
2022/11/09 10:09:48;;;;;;;;;0.50;0.50;;;;;-145.03;100.00;62373.16;5047667;28;45472;-78
2022/11/09 10:12:35;;;;;;;;;0.00;0.00;;;;;-145.03;100.00;62373.16;5057798;28;45464;-76
2022/11/09 10:15:18;;;;;;;;;1.00;1.00;;;;;-145.03;100.00;62373.16;5058148;28;45526;-76
2022/11/09 10:18:02;;;;;;;;;0.00;0.00;;;;;-145.03;100.00;62373.16;5058284;28;45429;-76
2022/11/09 10:20:46;;;;;;;;;2.75;1.25;;;;;-145.03;100.00;62373.16;5036530;28;45734;-76
2022/11/09 10:23:29;;;;;;;;;0.00;0.00;;;;;-145.03;100.00;62373.16;5052992;28;46281;-76
2022/11/09 10:26:03;;;;;;;;;2.00;0.50;;;;;-145.03;100.00;62373.16;5039756;28;45628;-76
2022/11/09 10:28:29;;;;;;;;;0.50;0.00;;;;;-145.03;100.00;62373.16;5058267;28;45400;-75
2022/11/09 10:30:57;;;;;;;;;1.00;1.00;;;;;-145.03;100.00;62373.16;5053644;28;45632;-75
2022/11/09 10:33:26;;;;;;;;;1.50;1.00;;;;;-145.03;100.00;62373.16;5055557;28;45508;-75
2022/11/09 10:36:01;;;;;;;;;1.00;1.00;;;;;-145.03;100.00;62373.16;5057538;28;45445;-73
2022/11/09 10:38:35;;;;;;;;;2.00;1.00;;;;;-145.03;100.00;62373.16;5057828;28;45320;-77
2022/11/09 10:41:21;;;;;;;;;1.00;0.75;;;;;-145.03;100.00;62373.16;5057133;28;45472;-76
2022/11/09 10:43:47;;;;;;;;;1.50;1.00;;;;;-145.03;100.00;62373.16;5057848;28;45440;-75
2022/11/09 10:46:12;;;;;;;;;1.00;1.00;;;;;-145.03;100.00;62373.16;5039154;28;45355;-75
2022/11/09 10:48:39;;;;;;;;;2.00;0.25;;;;;-145.03;100.00;62373.16;5058019;28;45392;-76
2022/11/09 10:51:25;;;;;;;;;0.75;0.75;;;;;-145.03;100.00;62373.16;5057362;28;45476;-76
2022/11/09 10:54:14;;;;;;;;;0.50;0.50;;;;;-145.03;100.00;62373.16;5039544;28;47168;-76
2022/11/09 10:56:46;;;;;;;;;0.50;0.00;;;;;-145.03;100.00;62373.16;5057718;28;45395;-76
2022/11/09 10:59:44;;;;;;;;;0.75;0.75;;;;;-145.03;100.00;62373.16;5057331;28;45465;-75
2022/11/09 11:02:24;;;;;;;;;0.00;0.00;;;;;-145.03;100.00;62373.16;5024381;28;45448;-75
2022/11/09 11:05:05;;;;;;;;;1.50;0.00;;;;;-145.03;100.00;62373.16;5057293;28;47460;-75
2022/11/09 11:07:32;;;;;;;;;0.00;0.00;;;;;-145.03;100.00;62373.16;5057024;28;45488;-76
2022/11/09 11:10:19;;;;;;;;;2.00;0.00;;;;;-145.03;100.00;62373.16;5057823;28;45356;-76
2022/11/09 11:13:15;;;;;;;;;3.50;1.00;;;;;-145.03;100.00;62373.16;5045915;28;45514;-78
2022/11/09 11:15:41;;;;;;;;;2.00;1.00;;;;;-145.03;100.00;62373.16;5056747;28;45509;-79
2022/11/09 11:18:15;;;;;;;;;0.00;0.00;;;;;-145.03;100.00;62373.16;5056924;28;45392;-79